Time;durP1;ratioP1;P1;durP2;ratioP2;P2;SDS_P1;SDS_P2;PMS_P1;PMS_P2;Temp;Humidity;BMP_temperature;BMP_pressure;BME280_temperature;BME280_humidity;BME280_pressure;Samples;Min_cycle;Max_cycle;Signal;HPM_P1;HPM_P2
2023/07/31 00:01:42;;;;;;;6.00;3.00;;;24.10;87.50;;;;;;5056960;28;20202;-68
2023/07/31 00:04:08;;;;;;;3.72;2.83;;;24.10;88.90;;;;;;5057700;28;20226;-68
2023/07/31 00:06:34;;;;;;;10.13;3.40;;;24.10;88.30;;;;;;5073877;28;20833;-68
2023/07/31 00:09:00;;;;;;;7.73;3.23;;;24.10;88.10;;;;;;5051493;28;20198;-68
2023/07/31 00:11:26;;;;;;;7.67;3.17;;;24.10;89.50;;;;;;5037847;28;20269;-68
2023/07/31 00:13:54;;;;;;;7.13;3.30;;;24.20;90.20;;;;;;5052470;28;20210;-69
2023/07/31 00:16:20;;;;;;;7.77;3.57;;;24.30;90.40;;;;;;5051923;28;20193;-69
2023/07/31 00:18:46;;;;;;;6.30;3.30;;;24.30;90.50;;;;;;5052069;28;20198;-69
2023/07/31 00:21:12;;;;;;;9.70;3.40;;;24.40;90.70;;;;;;5054822;28;20264;-69
2023/07/31 00:23:38;;;;;;;8.93;3.60;;;24.40;90.60;;;;;;5048770;28;20230;-69
2023/07/31 00:26:05;;;;;;;7.90;4.00;;;24.50;90.60;;;;;;5053239;28;20297;-69
2023/07/31 00:28:31;;;;;;;11.87;3.57;;;24.50;90.40;;;;;;5054850;28;20183;-69
2023/07/31 00:30:58;;;;;;;11.83;3.73;;;24.60;90.20;;;;;;5059156;28;20199;-69
2023/07/31 00:33:24;;;;;;;7.20;3.45;;;24.70;89.90;;;;;;5057948;28;20736;-69
2023/07/31 00:35:50;;;;;;;8.90;3.63;;;24.70;89.00;;;;;;5051762;28;20669;-69
2023/07/31 00:38:16;;;;;;;12.83;3.97;;;24.80;89.10;;;;;;5056795;28;20662;-69
2023/07/31 00:40:42;;;;;;;9.70;3.60;;;24.80;89.00;;;;;;5058691;28;20182;-69
2023/07/31 00:43:09;;;;;;;9.60;3.63;;;24.80;88.70;;;;;;5052985;28;20633;-69
2023/07/31 00:45:35;;;;;;;7.55;3.38;;;24.80;88.20;;;;;;5055340;28;20214;-69
2023/07/31 00:48:02;;;;;;;8.47;3.40;;;24.80;87.90;;;;;;5053208;28;20187;-69
2023/07/31 00:50:29;;;;;;;9.48;3.75;;;24.80;86.60;;;;;;5054738;28;20189;-69
2023/07/31 00:52:55;;;;;;;10.35;3.90;;;24.80;86.10;;;;;;5053332;28;20194;-69
2023/07/31 00:55:22;;;;;;;7.57;3.38;;;24.80;86.70;;;;;;5056522;28;20580;-69
2023/07/31 00:57:50;;;;;;;7.80;3.20;;;24.70;86.90;;;;;;5053832;28;20253;-69
2023/07/31 01:00:16;;;;;;;4.78;3.45;;;24.70;86.60;;;;;;5058914;28;20517;-69
2023/07/31 01:02:42;;;;;;;5.70;3.40;;;24.70;86.30;;;;;;5054340;28;20205;-69
2023/07/31 01:05:09;;;;;;;8.48;3.60;;;24.60;86.10;;;;;;5055736;28;20198;-69
2023/07/31 01:08:08;;;;;;;10.05;3.70;;;24.60;86.40;;;;;;5057129;28;20663;-69
2023/07/31 01:10:49;;;;;;;10.02;3.97;;;24.60;86.90;;;;;;5060525;28;20198;-69
2023/07/31 01:13:17;;;;;;;6.60;3.50;;;24.50;86.00;;;;;;5055568;28;20298;-69
2023/07/31 01:15:43;;;;;;;6.88;3.22;;;24.60;85.70;;;;;;5052141;28;20251;-69
2023/07/31 01:18:09;;;;;;;8.55;3.90;;;24.60;85.80;;;;;;5059314;28;20196;-69
2023/07/31 01:20:39;;;;;;;11.23;3.72;;;24.50;85.70;;;;;;5057270;28;20183;-69
2023/07/31 01:24:10;;;;;;;7.07;3.78;;;24.50;85.60;;;;;;5069380;28;20191;-69
2023/07/31 01:26:40;;;;;;;6.73;3.60;;;24.40;85.60;;;;;;5059732;28;20262;-69
2023/07/31 01:29:55;;;;;;;4.43;3.37;;;24.30;85.70;;;;;;5056310;28;20274;-69
2023/07/31 01:32:25;;;;;;;6.28;3.67;;;24.30;85.60;;;;;;5047777;28;20270;-69
2023/07/31 01:34:53;;;;;;;6.20;3.50;;;24.30;85.80;;;;;;5053914;28;20194;-69
2023/07/31 01:37:19;;;;;;;7.97;3.27;;;24.30;85.80;;;;;;5057708;28;20181;-69
2023/07/31 01:39:45;;;;;;;4.30;3.43;;;24.30;85.60;;;;;;5067115;28;20187;-69
2023/07/31 01:42:12;;;;;;;7.90;3.47;;;24.30;85.60;;;;;;5043704;28;20182;-69
2023/07/31 01:44:38;;;;;;;8.33;3.77;;;24.30;85.70;;;;;;5056866;28;20186;-69
2023/07/31 01:47:05;;;;;;;7.57;4.00;;;24.30;85.60;;;;;;5058975;28;20209;-69
2023/07/31 01:49:31;;;;;;;10.63;3.38;;;24.30;85.60;;;;;;5055594;28;20186;-69
2023/07/31 01:51:57;;;;;;;7.30;3.40;;;24.30;85.60;;;;;;5049664;28;20197;-69
2023/07/31 01:54:24;;;;;;;8.65;3.53;;;24.30;85.70;;;;;;5049746;28;20194;-69
2023/07/31 01:56:53;;;;;;;6.73;3.83;;;24.30;85.50;;;;;;5055368;28;20195;-69
2023/07/31 01:59:19;;;;;;;5.47;3.50;;;24.20;85.50;;;;;;5057154;28;20187;-70
2023/07/31 02:01:45;;;;;;;6.80;3.45;;;24.20;85.60;;;;;;5057582;28;20187;-70
2023/07/31 02:04:12;;;;;;;5.37;3.70;;;24.20;85.60;;;;;;5052805;28;20547;-70
2023/07/31 02:06:39;;;;;;;7.28;3.38;;;24.20;85.50;;;;;;5054901;28;20810;-70
2023/07/31 02:09:05;;;;;;;9.83;3.53;;;24.20;85.60;;;;;;5048509;28;20232;-70
2023/07/31 02:11:31;;;;;;;7.00;3.37;;;24.20;85.90;;;;;;5056455;28;20222;-70
2023/07/31 02:13:57;;;;;;;8.10;3.53;;;24.10;85.70;;;;;;5050467;28;20214;-70
2023/07/31 02:16:24;;;;;;;5.03;3.30;;;24.10;86.00;;;;;;5057535;28;20251;-70
2023/07/31 02:18:50;;;;;;;7.93;3.50;;;24.10;85.70;;;;;;5058515;28;20195;-70
2023/07/31 02:21:16;;;;;;;9.43;3.50;;;24.00;85.90;;;;;;5052324;28;20234;-70
2023/07/31 02:23:42;;;;;;;5.80;3.33;;;24.00;85.90;;;;;;5057083;28;20194;-70
2023/07/31 02:26:08;;;;;;;7.10;3.47;;;23.90;85.90;;;;;;5058139;28;21033;-70
2023/07/31 02:28:34;;;;;;;6.67;3.50;;;23.90;85.90;;;;;;5059654;28;20218;-70
2023/07/31 02:31:01;;;;;;;6.00;3.33;;;23.90;86.30;;;;;;5052492;28;20271;-70
2023/07/31 02:33:27;;;;;;;12.40;3.70;;;23.90;86.40;;;;;;5062342;28;20186;-70
2023/07/31 02:35:54;;;;;;;9.97;3.77;;;23.90;85.90;;;;;;5062703;28;20237;-70
2023/07/31 02:38:20;;;;;;;11.37;4.17;;;24.00;86.10;;;;;;5058767;28;20277;-70
2023/07/31 02:40:46;;;;;;;6.77;3.67;;;24.00;85.80;;;;;;5052283;28;20659;-70
2023/07/31 02:43:12;;;;;;;6.20;3.60;;;24.00;85.90;;;;;;5077427;28;20187;-70
2023/07/31 02:45:39;;;;;;;9.23;3.40;;;24.00;85.80;;;;;;5051563;28;20196;-70
2023/07/31 02:48:06;;;;;;;5.63;3.30;;;24.00;85.90;;;;;;5058147;28;20205;-70
2023/07/31 02:50:33;;;;;;;9.00;3.50;;;24.00;86.00;;;;;;5059008;28;20488;-70
2023/07/31 02:52:59;;;;;;;7.63;3.53;;;24.00;86.10;;;;;;5059614;28;20234;-70
2023/07/31 02:55:25;;;;;;;7.17;3.87;;;24.10;86.10;;;;;;5059069;28;20195;-70
2023/07/31 02:57:52;;;;;;;5.55;3.40;;;24.10;86.20;;;;;;5056946;28;20750;-70
2023/07/31 03:00:19;;;;;;;7.10;3.40;;;24.10;86.20;;;;;;5064300;28;20240;-70
2023/07/31 03:02:45;;;;;;;7.67;3.63;;;24.10;86.40;;;;;;5045786;28;20190;-70
2023/07/31 03:05:12;;;;;;;7.67;3.20;;;24.10;86.60;;;;;;5059388;28;20270;-70
2023/07/31 03:07:38;;;;;;;8.93;3.88;;;24.10;86.60;;;;;;5053870;28;20805;-70
2023/07/31 03:10:05;;;;;;;5.90;3.40;;;24.10;86.70;;;;;;5059217;28;20183;-70
2023/07/31 03:12:31;;;;;;;9.37;3.70;;;24.10;86.90;;;;;;5058888;28;20190;-70
2023/07/31 03:14:57;;;;;;;8.50;4.03;;;24.10;87.00;;;;;;5056322;28;20983;-70
2023/07/31 03:17:23;;;;;;;6.68;3.55;;;24.10;87.20;;;;;;5058741;28;20542;-70
2023/07/31 03:19:50;;;;;;;8.73;3.57;;;24.10;87.40;;;;;;5056407;28;20776;-71
2023/07/31 03:22:16;;;;;;;6.20;3.30;;;24.10;87.50;;;;;;5041237;28;20195;-71
2023/07/31 03:24:42;;;;;;;6.38;3.67;;;24.10;87.50;;;;;;5073952;28;20274;-71
2023/07/31 03:27:08;;;;;;;6.18;3.50;;;24.10;87.70;;;;;;5059576;28;20214;-71
2023/07/31 03:29:34;;;;;;;7.40;3.67;;;24.10;88.00;;;;;;5057576;28;20189;-71
2023/07/31 03:32:01;;;;;;;8.47;3.60;;;24.10;88.30;;;;;;5074167;28;20198;-71
2023/07/31 03:34:27;;;;;;;7.75;3.67;;;24.10;88.60;;;;;;5052601;28;20187;-70
2023/07/31 03:36:54;;;;;;;7.30;3.40;;;24.10;88.70;;;;;;5052633;28;20739;-70
2023/07/31 03:39:20;;;;;;;5.50;3.40;;;24.10;88.80;;;;;;5059301;28;20219;-70
2023/07/31 03:41:47;;;;;;;6.37;3.43;;;24.10;89.10;;;;;;5057736;28;20190;-70
2023/07/31 03:44:13;;;;;;;7.93;3.40;;;24.10;89.20;;;;;;5047802;28;20196;-70
2023/07/31 03:46:39;;;;;;;7.97;3.57;;;24.10;89.10;;;;;;5050076;28;20215;-70
2023/07/31 03:49:05;;;;;;;8.13;4.27;;;24.10;89.30;;;;;;5067504;28;20175;-70
2023/07/31 03:51:31;;;;;;;6.82;3.97;;;24.20;89.30;;;;;;5056939;28;20260;-70
2023/07/31 03:53:58;;;;;;;9.20;3.92;;;24.20;89.20;;;;;;5057269;28;20232;-70
2023/07/31 03:56:24;;;;;;;8.23;3.33;;;24.20;89.30;;;;;;5056670;28;20187;-70
2023/07/31 03:58:50;;;;;;;10.87;3.70;;;24.30;89.60;;;;;;5061910;28;20283;-69
2023/07/31 04:01:17;;;;;;;5.10;3.53;;;24.30;89.70;;;;;;5052914;28;20580;-70
2023/07/31 04:03:43;;;;;;;7.80;3.60;;;24.30;89.70;;;;;;5055887;28;20661;-70
2023/07/31 04:06:10;;;;;;;7.10;3.80;;;24.30;89.10;;;;;;5057460;28;20200;-70
2023/07/31 04:08:36;;;;;;;9.67;3.80;;;24.30;89.40;;;;;;5061664;28;20269;-70
2023/07/31 04:11:02;;;;;;;9.18;3.47;;;24.40;89.30;;;;;;5053907;28;20185;-70
2023/07/31 04:13:30;;;;;;;6.33;3.33;;;24.40;89.50;;;;;;5061454;28;20225;-71
2023/07/31 04:15:56;;;;;;;6.67;3.57;;;24.40;89.60;;;;;;5057600;28;20199;-70
2023/07/31 04:18:25;;;;;;;8.40;3.60;;;24.40;89.60;;;;;;5041349;28;20182;-70
2023/07/31 04:20:52;;;;;;;7.57;3.27;;;24.40;89.50;;;;;;5058767;28;20581;-70
2023/07/31 04:23:18;;;;;;;5.70;3.40;;;24.40;89.70;;;;;;5050389;28;20668;-70
2023/07/31 04:25:44;;;;;;;10.13;3.60;;;24.50;89.90;;;;;;5049940;28;20211;-70
2023/07/31 04:28:11;;;;;;;7.60;3.17;;;24.50;90.00;;;;;;5061033;28;20252;-70
2023/07/31 04:30:37;;;;;;;9.47;3.63;;;24.50;90.00;;;;;;5072483;28;20199;-70
2023/07/31 04:33:03;;;;;;;7.90;3.50;;;24.60;90.00;;;;;;5062843;28;20285;-70
2023/07/31 04:35:29;;;;;;;10.80;3.53;;;24.70;90.00;;;;;;5050197;28;20197;-70
2023/07/31 04:37:55;;;;;;;7.00;3.33;;;24.70;90.10;;;;;;5060115;28;20529;-70
2023/07/31 04:40:22;;;;;;;6.97;3.80;;;24.80;90.20;;;;;;5056417;28;20194;-71
2023/07/31 04:42:48;;;;;;;12.60;3.87;;;24.90;90.20;;;;;;5051405;28;20375;-70
2023/07/31 04:45:14;;;;;;;7.20;3.30;;;25.00;90.00;;;;;;5057364;28;20201;-70
2023/07/31 04:47:40;;;;;;;10.53;3.80;;;25.00;90.00;;;;;;5059272;28;20824;-71
2023/07/31 04:50:07;;;;;;;14.45;4.22;;;25.10;89.60;;;;;;5054387;28;20543;-70
2023/07/31 04:52:34;;;;;;;7.03;3.60;;;25.10;89.80;;;;;;5054540;28;20195;-70
2023/07/31 04:55:00;;;;;;;8.82;3.40;;;25.20;90.00;;;;;;5058721;28;20190;-70
2023/07/31 04:57:26;;;;;;;16.85;3.67;;;25.30;90.10;;;;;;5060646;28;20522;-70
2023/07/31 04:59:53;;;;;;;8.07;3.78;;;25.40;90.30;;;;;;5057108;28;20198;-70
2023/07/31 05:02:19;;;;;;;5.43;3.60;;;25.50;89.90;;;;;;5063698;28;20192;-70
2023/07/31 05:04:45;;;;;;;11.82;3.60;;;25.60;90.30;;;;;;5055455;28;20202;-71
2023/07/31 05:07:12;;;;;;;5.57;3.47;;;25.70;88.90;;;;;;5056701;28;20227;-70
2023/07/31 05:09:39;;;;;;;9.80;3.95;;;25.70;88.00;;;;;;5058947;28;20179;-70
2023/07/31 05:12:06;;;;;;;7.40;3.55;;;25.80;89.20;;;;;;5055916;28;20178;-70
2023/07/31 05:14:32;;;;;;;7.30;3.40;;;25.80;89.70;;;;;;5052033;28;20185;-70
2023/07/31 05:16:58;;;;;;;6.85;3.72;;;25.80;89.20;;;;;;5059544;28;20183;-71
2023/07/31 05:19:24;;;;;;;5.43;3.42;;;25.80;88.60;;;;;;5052913;28;20221;-70
2023/07/31 05:21:50;;;;;;;11.38;3.35;;;25.80;86.40;;;;;;5040534;28;20301;-70
2023/07/31 05:24:17;;;;;;;10.65;3.35;;;25.90;85.60;;;;;;5060103;28;20883;-71
2023/07/31 05:26:43;;;;;;;7.03;3.15;;;26.00;84.20;;;;;;5057856;28;20700;-70
2023/07/31 05:29:09;;;;;;;7.05;3.38;;;26.10;84.60;;;;;;5059643;28;20207;-70
2023/07/31 05:31:35;;;;;;;8.35;3.20;;;26.10;83.80;;;;;;5038892;28;20195;-71
2023/07/31 05:34:01;;;;;;;6.78;3.40;;;26.20;83.20;;;;;;5056200;28;20187;-70
2023/07/31 05:36:28;;;;;;;9.70;3.80;;;26.30;83.20;;;;;;5058031;28;20187;-71
2023/07/31 05:38:54;;;;;;;7.25;4.00;;;26.30;84.00;;;;;;5057023;28;20665;-70
2023/07/31 05:41:20;;;;;;;9.30;3.50;;;26.40;83.50;;;;;;5045296;28;20179;-70
2023/07/31 05:43:46;;;;;;;7.47;3.75;;;26.40;83.30;;;;;;5056633;28;20566;-70
2023/07/31 05:46:12;;;;;;;8.85;3.63;;;26.60;83.70;;;;;;5055013;28;20199;-70
2023/07/31 05:48:39;;;;;;;13.23;3.60;;;26.60;83.90;;;;;;5071875;28;20191;-70
2023/07/31 05:51:05;;;;;;;6.47;3.72;;;26.70;83.50;;;;;;5051901;28;20192;-70
2023/07/31 05:53:31;;;;;;;9.18;3.75;;;26.80;83.70;;;;;;5054186;28;20191;-70
2023/07/31 05:55:58;;;;;;;9.05;3.50;;;26.90;83.50;;;;;;5051487;28;20499;-69
2023/07/31 05:58:24;;;;;;;6.78;3.50;;;27.10;83.60;;;;;;5057028;28;20198;-70
2023/07/31 06:00:51;;;;;;;9.63;3.65;;;27.10;84.50;;;;;;5057703;28;20195;-70
2023/07/31 06:03:17;;;;;;;10.77;3.78;;;27.10;85.00;;;;;;5057951;28;21429;-70
2023/07/31 06:05:43;;;;;;;11.00;4.20;;;27.30;85.30;;;;;;5058679;28;20216;-70
2023/07/31 06:08:09;;;;;;;9.32;3.67;;;27.30;85.70;;;;;;5056724;28;20624;-70
2023/07/31 06:10:36;;;;;;;11.40;3.53;;;27.40;87.10;;;;;;5064506;28;20293;-70
2023/07/31 06:13:02;;;;;;;8.32;3.53;;;27.50;86.60;;;;;;5060814;28;20187;-69
2023/07/31 06:15:29;;;;;;;13.90;4.47;;;27.50;86.70;;;;;;5045161;28;20179;-69
2023/07/31 06:17:55;;;;;;;9.70;3.33;;;27.50;86.70;;;;;;5070634;28;20562;-70
2023/07/31 06:20:21;;;;;;;14.73;3.70;;;27.50;87.30;;;;;;5056044;28;20226;-70
2023/07/31 06:22:48;;;;;;;6.47;2.97;;;27.60;88.60;;;;;;5059821;28;20206;-71
2023/07/31 06:25:14;;;;;;;8.68;3.30;;;27.80;87.70;;;;;;5057418;28;20301;-71
2023/07/31 06:27:40;;;;;;;6.70;3.40;;;27.80;87.50;;;;;;5073163;28;20739;-70
2023/07/31 06:30:07;;;;;;;4.60;3.03;;;27.90;88.10;;;;;;5056619;28;20183;-70
2023/07/31 06:32:34;;;;;;;11.23;3.40;;;28.00;87.20;;;;;;5055275;28;20248;-70
2023/07/31 06:35:00;;;;;;;5.82;2.95;;;28.00;86.50;;;;;;5056686;28;20545;-71
2023/07/31 06:37:26;;;;;;;6.90;3.20;;;28.10;87.60;;;;;;5060716;28;20187;-71
2023/07/31 06:39:52;;;;;;;8.65;3.00;;;28.20;85.50;;;;;;5058259;28;20276;-71
2023/07/31 06:42:18;;;;;;;6.63;2.90;;;28.40;86.00;;;;;;5044820;28;20190;-70
2023/07/31 06:44:44;;;;;;;10.90;3.20;;;28.40;88.00;;;;;;5058322;28;20186;-70
2023/07/31 06:47:11;;;;;;;6.22;3.33;;;28.50;89.50;;;;;;5064302;28;20213;-70
2023/07/31 06:49:37;;;;;;;7.05;3.00;;;28.50;89.70;;;;;;5062537;28;20249;-70
2023/07/31 06:52:04;;;;;;;7.07;3.20;;;28.60;90.20;;;;;;5060854;28;20193;-70
2023/07/31 06:54:30;;;;;;;7.55;2.85;;;28.70;89.10;;;;;;5060197;28;20175;-70
2023/07/31 06:56:56;;;;;;;7.78;3.22;;;28.80;89.90;;;;;;5052666;28;20937;-70
2023/07/31 06:59:22;;;;;;;9.00;3.20;;;28.80;89.60;;;;;;5063222;28;20174;-70
2023/07/31 07:01:49;;;;;;;4.57;2.75;;;29.00;89.80;;;;;;5062915;28;20285;-71
2023/07/31 07:04:15;;;;;;;5.15;2.88;;;29.10;90.10;;;;;;5058515;28;20576;-71
2023/07/31 07:06:42;;;;;;;7.05;3.50;;;29.10;90.10;;;;;;5057628;28;20260;-70
2023/07/31 07:09:08;;;;;;;7.82;3.25;;;29.20;90.20;;;;;;5063166;28;20213;-70
2023/07/31 07:11:34;;;;;;;8.57;3.05;;;29.30;89.80;;;;;;5060840;28;20561;-70
2023/07/31 07:14:01;;;;;;;5.00;3.17;;;29.40;90.20;;;;;;5057085;28;20237;-71
2023/07/31 07:16:29;;;;;;;8.85;3.03;;;29.50;90.50;;;;;;5059905;28;20187;-70
2023/07/31 07:18:55;;;;;;;7.60;2.88;;;29.50;90.00;;;;;;5045855;28;20186;-70
2023/07/31 07:21:21;;;;;;;7.10;2.72;;;29.60;88.80;;;;;;5055164;28;20180;-70
2023/07/31 07:23:48;;;;;;;9.25;2.80;;;29.70;88.30;;;;;;5051542;28;20206;-71
2023/07/31 07:26:14;;;;;;;11.90;3.20;;;29.70;87.90;;;;;;5059316;28;20229;-70
2023/07/31 07:28:40;;;;;;;7.03;3.17;;;29.70;87.70;;;;;;5058619;28;20218;-70
2023/07/31 07:31:06;;;;;;;7.10;2.60;;;29.80;88.80;;;;;;5058334;28;20199;-70
2023/07/31 07:33:33;;;;;;;5.43;2.80;;;29.90;90.20;;;;;;5052238;28;20183;-70
2023/07/31 07:36:02;;;;;;;7.53;3.30;;;30.10;90.60;;;;;;5057185;28;20211;-70
2023/07/31 07:38:29;;;;;;;6.75;3.20;;;30.20;90.30;;;;;;5040836;28;20772;-70
2023/07/31 07:40:55;;;;;;;8.13;3.15;;;30.20;92.10;;;;;;5058834;28;20186;-70
2023/07/31 07:43:21;;;;;;;12.45;3.67;;;30.30;91.90;;;;;;5062235;28;20191;-70
2023/07/31 07:45:48;;;;;;;7.10;3.13;;;30.40;92.00;;;;;;5071910;28;20321;-70
2023/07/31 07:48:14;;;;;;;13.13;2.97;;;30.40;92.20;;;;;;5068770;28;20199;-71
2023/07/31 07:50:40;;;;;;;7.82;2.70;;;30.40;91.70;;;;;;5046201;28;20198;-70
2023/07/31 07:53:07;;;;;;;5.50;2.90;;;30.40;90.50;;;;;;5057100;28;20198;-71
2023/07/31 07:55:33;;;;;;;6.22;2.72;;;30.60;85.80;;;;;;5061312;28;20186;-70
2023/07/31 07:57:59;;;;;;;5.43;3.08;;;30.60;87.30;;;;;;5059139;28;20217;-70
2023/07/31 08:00:25;;;;;;;6.13;3.00;;;30.70;85.60;;;;;;5053579;28;20277;-70
2023/07/31 08:02:52;;;;;;;4.20;2.40;;;30.70;86.70;;;;;;5055951;28;20190;-70
2023/07/31 08:05:18;;;;;;;5.63;2.90;;;30.80;87.20;;;;;;5058179;28;20198;-70
2023/07/31 08:07:45;;;;;;;8.00;3.15;;;31.00;82.10;;;;;;5057550;28;20666;-70
2023/07/31 08:10:11;;;;;;;7.30;3.03;;;31.00;83.40;;;;;;5058204;28;20179;-70
2023/07/31 08:12:37;;;;;;;7.13;2.80;;;31.00;85.70;;;;;;5051578;28;20199;-70
2023/07/31 08:15:04;;;;;;;6.88;2.63;;;31.20;86.50;;;;;;5060635;28;20503;-70
2023/07/31 08:17:31;;;;;;;4.78;2.70;;;31.20;86.60;;;;;;5058981;28;20190;-71
2023/07/31 08:19:58;;;;;;;9.55;2.80;;;31.30;87.10;;;;;;5053938;28;20187;-70
2023/07/31 08:22:25;;;;;;;9.25;3.47;;;31.50;87.60;;;;;;5054799;28;20191;-70
2023/07/31 08:24:51;;;;;;;7.10;2.80;;;31.60;87.70;;;;;;5052489;28;20258;-71
2023/07/31 08:27:18;;;;;;;8.98;3.05;;;31.70;89.60;;;;;;5054475;28;20210;-71
2023/07/31 08:29:44;;;;;;;7.05;3.08;;;31.80;90.50;;;;;;5053871;28;20198;-71
2023/07/31 08:32:10;;;;;;;8.55;3.15;;;31.80;90.70;;;;;;5048359;28;20536;-70
2023/07/31 08:34:36;;;;;;;7.03;2.90;;;31.90;90.70;;;;;;5072668;28;20206;-70
2023/07/31 08:37:03;;;;;;;11.68;3.58;;;32.00;91.00;;;;;;5040948;28;20226;-71
2023/07/31 08:39:29;;;;;;;6.80;3.15;;;32.10;91.30;;;;;;5071168;28;20218;-70
2023/07/31 08:42:00;;;;;;;10.02;3.08;;;32.10;90.90;;;;;;5058850;28;20202;-70
2023/07/31 08:44:26;;;;;;;5.47;3.22;;;32.20;92.00;;;;;;5043581;28;20290;-70
2023/07/31 08:46:54;;;;;;;10.18;3.30;;;32.20;92.30;;;;;;5055107;28;20222;-70
2023/07/31 08:49:22;;;;;;;11.48;3.83;;;32.30;91.60;;;;;;5051265;28;20194;-71
2023/07/31 08:51:52;;;;;;;6.20;3.03;;;32.40;91.90;;;;;;5060052;28;20183;-71
2023/07/31 08:54:18;;;;;;;10.43;3.28;;;32.50;92.90;;;;;;5058888;28;20630;-71
2023/07/31 08:56:46;;;;;;;11.10;3.25;;;32.50;92.80;;;;;;5057999;28;20195;-71
2023/07/31 08:59:15;;;;;;;9.75;3.45;;;32.60;93.10;;;;;;5054256;28;20640;-70
2023/07/31 09:01:54;;;;;;;8.00;3.20;;;32.70;93.10;;;;;;5053832;28;20273;-71
2023/07/31 09:04:22;;;;;;;10.60;2.85;;;32.80;92.50;;;;;;5051984;28;20191;-70
2023/07/31 09:06:50;;;;;;;12.07;3.55;;;32.90;92.30;;;;;;5053257;28;20519;-70
2023/07/31 09:09:17;;;;;;;10.50;2.92;;;33.00;92.40;;;;;;5057001;28;20187;-70
2023/07/31 09:11:43;;;;;;;11.88;3.30;;;33.00;92.80;;;;;;5056760;28;20191;-70
2023/07/31 09:14:12;;;;;;;7.57;3.30;;;33.10;92.70;;;;;;5056302;28;20317;-70
2023/07/31 09:16:58;;;;;;;10.88;3.13;;;33.20;92.50;;;;;;5054451;28;20190;-71
2023/07/31 09:19:37;;;;;;;13.88;4.13;;;33.30;92.70;;;;;;5054413;28;20778;-70
2023/07/31 09:22:07;;;;;;;12.15;3.38;;;33.40;92.60;;;;;;5053119;28;20197;-70
2023/07/31 09:24:35;;;;;;;10.13;3.72;;;33.60;93.20;;;;;;5041992;28;20186;-71
2023/07/31 09:27:02;;;;;;;8.07;3.65;;;33.50;92.60;;;;;;5045382;28;20206;-70
2023/07/31 09:29:32;;;;;;;9.90;3.50;;;33.70;93.40;;;;;;5055081;28;20198;-71
2023/07/31 09:31:58;;;;;;;8.02;3.20;;;33.70;92.20;;;;;;5059419;28;20198;-70
2023/07/31 09:34:41;;;;;;;10.10;3.20;;;33.90;92.50;;;;;;5062874;28;20260;-70
2023/07/31 09:37:07;;;;;;;7.05;3.40;;;33.90;93.10;;;;;;5064813;28;20183;-70
2023/07/31 09:39:47;;;;;;;7.68;3.40;;;33.90;93.00;;;;;;5063283;28;20949;-70
2023/07/31 09:42:16;;;;;;;8.10;3.45;;;33.90;92.70;;;;;;5059626;28;20236;-70
2023/07/31 09:44:44;;;;;;;7.03;3.22;;;33.90;93.60;;;;;;5061887;28;20194;-70
2023/07/31 09:47:24;;;;;;;9.15;3.58;;;34.10;93.90;;;;;;5057797;28;20701;-70
2023/07/31 09:49:50;;;;;;;8.52;3.15;;;34.10;93.30;;;;;;5060511;28;20179;-71
2023/07/31 09:52:16;;;;;;;11.02;3.30;;;34.10;93.50;;;;;;5062017;28;20184;-71
2023/07/31 09:54:43;;;;;;;10.38;3.38;;;34.20;94.10;;;;;;5057786;28;20556;-70
2023/07/31 09:57:11;;;;;;;9.52;3.47;;;34.40;92.30;;;;;;5061804;28;20302;-70
2023/07/31 09:59:38;;;;;;;8.75;3.85;;;34.50;92.20;;;;;;5046391;28;20183;-70
2023/07/31 10:02:10;;;;;;;12.40;3.60;;;34.40;92.60;;;;;;5059820;28;20197;-71
2023/07/31 10:04:37;;;;;;;8.02;3.35;;;34.50;90.80;;;;;;5046547;28;20190;-70
2023/07/31 10:07:05;;;;;;;10.15;4.00;;;34.60;91.40;;;;;;5057579;28;20195;-70
2023/07/31 10:09:33;;;;;;;11.70;3.30;;;34.80;91.90;;;;;;5042999;28;20209;-70
2023/07/31 10:12:05;;;;;;;12.77;4.03;;;34.90;92.90;;;;;;5060193;28;20210;-70
2023/07/31 10:14:33;;;;;;;14.68;3.40;;;35.00;93.40;;;;;;5043281;28;20290;-70
2023/07/31 10:17:00;;;;;;;7.90;3.15;;;35.00;94.40;;;;;;5053462;28;20727;-70
2023/07/31 10:19:29;;;;;;;12.48;3.30;;;34.90;95.00;;;;;;5061959;28;20722;-70
2023/07/31 10:21:58;;;;;;;8.93;3.70;;;35.00;94.90;;;;;;5057283;28;20591;-70
2023/07/31 10:24:26;;;;;;;8.32;3.60;;;34.90;96.10;;;;;;5060010;28;20969;-70
2023/07/31 10:26:58;;;;;;;14.75;3.67;;;34.90;96.30;;;;;;5057856;28;20249;-69
2023/07/31 10:29:25;;;;;;;6.82;3.38;;;34.90;96.00;;;;;;5063729;28;20194;-71
2023/07/31 10:31:56;;;;;;;14.30;3.97;;;35.00;95.40;;;;;;5058440;28;20199;-71
2023/07/31 10:34:22;;;;;;;10.95;3.85;;;35.00;95.70;;;;;;5059547;28;20187;-70
2023/07/31 10:36:49;;;;;;;11.48;3.50;;;34.90;95.90;;;;;;5084756;28;20193;-71
2023/07/31 10:39:39;;;;;;;11.13;3.70;;;34.90;95.70;;;;;;5060371;28;20274;-71
2023/07/31 10:42:13;;;;;;;14.55;3.58;;;34.80;96.60;;;;;;5058670;28;20198;-70
2023/07/31 10:44:46;;;;;;;11.32;3.28;;;34.80;97.00;;;;;;5059935;28;20208;-70
2023/07/31 10:47:16;;;;;;;9.15;3.47;;;34.50;97.80;;;;;;5057964;28;20308;-70
2023/07/31 10:49:46;;;;;;;11.43;3.63;;;34.50;98.50;;;;;;5059537;28;20183;-70
2023/07/31 10:52:13;;;;;;;12.40;3.90;;;34.60;99.30;;;;;;5057928;28;20229;-70
2023/07/31 10:54:40;;;;;;;13.73;3.83;;;34.50;99.40;;;;;;5047788;28;20242;-70
2023/07/31 10:57:22;;;;;;;16.08;4.20;;;34.60;99.70;;;;;;5059602;28;20195;-70
2023/07/31 10:59:50;;;;;;;10.60;3.85;;;34.40;99.90;;;;;;5054801;28;20549;-70
2023/07/31 11:02:30;;;;;;;9.88;3.72;;;34.20;99.90;;;;;;5061271;28;20194;-71
2023/07/31 11:05:11;;;;;;;10.23;4.10;;;34.20;99.90;;;;;;5082198;28;20229;-71
2023/07/31 11:07:49;;;;;;;8.70;3.67;;;34.20;99.90;;;;;;5075130;28;20406;-70
2023/07/31 11:10:19;;;;;;;9.05;3.33;;;34.20;99.90;;;;;;5055433;28;20183;-70
2023/07/31 11:12:49;;;;;;;13.13;3.50;;;34.10;99.90;;;;;;5069208;28;20186;-70
2023/07/31 11:15:15;;;;;;;11.48;3.15;;;34.20;99.90;;;;;;5060406;28;20214;-70
2023/07/31 11:17:41;;;;;;;11.38;3.63;;;34.30;99.90;;;;;;5057937;28;20298;-71
2023/07/31 11:20:08;;;;;;;10.90;3.83;;;34.30;99.90;;;;;;5058791;28;20187;-70
2023/07/31 11:22:36;;;;;;;12.70;3.50;;;34.40;99.90;;;;;;5050427;28;20201;-70
2023/07/31 11:25:04;;;;;;;10.05;3.63;;;34.30;99.90;;;;;;5059601;28;20190;-70
2023/07/31 11:27:30;;;;;;;12.50;3.70;;;34.20;99.90;;;;;;5059540;28;20209;-71
2023/07/31 11:30:04;;;;;;;14.45;3.60;;;34.40;99.90;;;;;;5062138;28;20241;-71
2023/07/31 11:32:30;;;;;;;16.55;4.78;;;34.30;99.90;;;;;;5056114;28;20311;-70
2023/07/31 11:34:56;;;;;;;12.93;3.92;;;34.30;99.90;;;;;;5053577;28;20412;-70
2023/07/31 11:37:23;;;;;;;10.93;3.60;;;34.20;99.90;;;;;;5056415;28;20195;-70
2023/07/31 11:40:01;;;;;;;12.13;3.92;;;34.20;99.90;;;;;;5042464;28;20195;-70
2023/07/31 11:42:27;;;;;;;11.88;4.10;;;34.20;99.90;;;;;;5069461;28;20209;-70
2023/07/31 11:44:54;;;;;;;16.10;3.70;;;34.10;99.90;;;;;;5056774;28;20301;-70
2023/07/31 11:47:20;;;;;;;7.97;3.15;;;34.10;99.80;;;;;;5057798;28;20243;-71
2023/07/31 11:49:48;;;;;;;13.10;3.72;;;34.00;99.30;;;;;;5052691;28;20248;-70
2023/07/31 11:52:19;;;;;;;10.65;3.65;;;34.00;99.70;;;;;;5052492;28;20688;-70
2023/07/31 11:54:46;;;;;;;15.48;3.90;;;34.10;99.50;;;;;;5053092;28;20756;-70
2023/07/31 11:57:14;;;;;;;8.77;3.42;;;34.10;99.20;;;;;;5054636;28;20186;-70
2023/07/31 11:59:41;;;;;;;15.88;3.83;;;34.10;98.70;;;;;;5059738;28;20198;-70
2023/07/31 12:02:08;;;;;;;11.70;3.50;;;34.00;99.20;;;;;;5042972;28;20518;-70
2023/07/31 12:04:35;;;;;;;10.02;3.50;;;34.10;99.00;;;;;;5054163;28;22030;-70
2023/07/31 12:07:01;;;;;;;10.05;3.42;;;34.10;98.30;;;;;;5053499;28;20226;-70
2023/07/31 12:09:28;;;;;;;9.10;3.65;;;34.10;97.70;;;;;;5054219;28;20187;-70
2023/07/31 12:11:54;;;;;;;7.03;3.08;;;34.10;97.60;;;;;;5052130;28;20834;-71
2023/07/31 12:14:26;;;;;;;8.95;3.38;;;34.10;97.30;;;;;;5041286;28;20190;-70
2023/07/31 12:17:10;;;;;;;13.30;3.92;;;34.10;97.70;;;;;;5060459;28;20669;-70
2023/07/31 12:19:37;;;;;;;14.93;3.80;;;34.20;97.20;;;;;;5076017;28;20183;-71
2023/07/31 12:22:16;;;;;;;6.38;3.33;;;34.10;97.50;;;;;;5051703;28;20282;-70
2023/07/31 12:24:45;;;;;;;10.55;3.40;;;34.30;97.80;;;;;;5049565;28;20218;-70
2023/07/31 12:27:17;;;;;;;9.57;3.75;;;34.30;97.00;;;;;;5051842;28;20223;-71
2023/07/31 12:29:44;;;;;;;9.63;3.30;;;34.40;96.90;;;;;;5048088;28;20183;-71
2023/07/31 12:32:25;;;;;;;8.27;3.55;;;34.50;95.80;;;;;;5051815;28;20194;-70
2023/07/31 12:34:51;;;;;;;9.57;3.35;;;34.40;95.60;;;;;;5049628;28;20182;-70
2023/07/31 12:37:18;;;;;;;10.63;3.53;;;34.40;95.40;;;;;;5052303;28;20657;-70
2023/07/31 12:39:44;;;;;;;11.25;3.75;;;34.20;95.10;;;;;;5049558;28;20853;-70
2023/07/31 12:42:10;;;;;;;15.90;3.75;;;34.10;96.00;;;;;;5046964;28;20615;-70
2023/07/31 12:44:37;;;;;;;7.60;3.72;;;34.10;95.90;;;;;;5046697;28;20190;-70
2023/07/31 12:47:04;;;;;;;8.38;3.10;;;34.00;95.70;;;;;;5048100;28;20207;-70